Lowest pressure

Not for real navigation. The accuracy of this data is not assured See disclaimer for more information



ICAO NAME COUNTRY WIND Kt GUST Kt VIS m TEMP/DEW C BARO METAR
SAWH Ushuaia Aerodrome Argentina 7 0 9999 4/-4 28.94 SAWH 192200Z 32007KT 9999 FEW040 SCT080 04/M04 Q0980
SAWE Rio Grande B. A. Argentina 3 0 9999 1/0 29.00 SAWE 192200Z 27003KT CAVOK 01/M00 Q0982
SCCI Punta Arenas Chile 13 0 9999 2/0 29.06 SCCI 192300Z 27013KT CAVOK 02/00 Q0984 NOSIG
SAWG Rio Gallegos Aerodrome Argentina 9 0 9999 2/-3 29.09 SAWG 192200Z 32009KT 9999 FEW030 SCT100 02/M03 Q0985
EGYP Mount Pleasant Airport South Georgia and the Islands 10 0 9999 4/2 29.12 EGYP 192250Z 34010KT CAVOK 04/02 Q0986 BLU NOSIG

Show more